createdAt,value
2023-03-05T00:00:18.936Z,75.86
2023-03-05T00:02:46.942Z,76.87
2023-03-05T00:05:14.906Z,77.13
2023-03-05T00:07:42.859Z,77.25
2023-03-05T00:10:11.759Z,76.38
2023-03-05T00:12:39.668Z,77.23
2023-03-05T00:15:09.284Z,77.03
2023-03-05T00:17:38.576Z,76.90
2023-03-05T00:20:07.405Z,76.61
2023-03-05T00:22:35.741Z,76.91
2023-03-05T00:25:04.110Z,76.33
2023-03-05T00:27:32.094Z,76.60
2023-03-05T00:30:00.087Z,76.60
2023-03-05T00:32:28.171Z,77.45
2023-03-05T00:34:57.509Z,77.57
2023-03-05T00:37:25.423Z,77.53
2023-03-05T00:39:53.288Z,77.56
2023-03-05T00:42:21.188Z,77.43
2023-03-05T00:44:49.086Z,77.12
2023-03-05T00:47:18.410Z,77.07
2023-03-05T00:49:46.625Z,76.84
2023-03-05T00:52:15.908Z,76.95
2023-03-05T00:54:43.896Z,77.25
2023-03-05T00:57:11.816Z,77.41
2023-03-05T00:59:40.640Z,77.76
2023-03-05T01:02:08.563Z,77.15
2023-03-05T01:04:36.477Z,77.84
2023-03-05T01:07:06.617Z,77.55
2023-03-05T01:09:35.948Z,77.75
2023-03-05T01:12:03.962Z,77.71
2023-03-05T01:14:32.503Z,78.89
2023-03-05T01:17:00.415Z,79.63
2023-03-05T01:19:28.316Z,79.02
2023-03-05T01:21:56.304Z,77.77
2023-03-05T01:24:24.413Z,78.12
2023-03-05T01:26:53.771Z,77.86
2023-03-05T01:29:21.648Z,78.53
2023-03-05T01:31:49.854Z,78.38
2023-03-05T01:34:18.156Z,77.88
2023-03-05T01:36:46.087Z,77.84
2023-03-05T01:39:14.052Z,78.06
2023-03-05T01:41:42.002Z,77.99
2023-03-05T01:44:22.442Z,78.26
2023-03-05T01:46:50.744Z,77.86
2023-03-05T01:49:24.029Z,78.51
2023-03-05T01:52:02.773Z,78.09
2023-03-05T01:54:34.703Z,78.32
2023-03-05T01:57:08.761Z,78.30
2023-03-05T01:59:40.338Z,77.99
2023-03-05T02:02:09.079Z,77.95
2023-03-05T02:04:43.675Z,78.07
2023-03-05T02:07:12.725Z,78.08
2023-03-05T02:09:41.219Z,78.10
2023-03-05T02:12:11.863Z,78.04
2023-03-05T02:14:43.653Z,77.93
2023-03-05T02:17:12.197Z,78.25
2023-03-05T02:19:53.241Z,78.21
2023-03-05T02:22:25.162Z,78.03
2023-03-05T02:24:53.720Z,77.83
2023-03-05T02:27:27.268Z,77.28
2023-03-05T02:29:55.618Z,77.34
2023-03-05T02:32:23.562Z,77.67
2023-03-05T02:34:51.615Z,78.28
2023-03-05T02:37:19.802Z,77.40
2023-03-05T02:39:49.068Z,78.09
2023-03-05T02:42:17.042Z,77.82
2023-03-05T02:44:44.951Z,78.36
2023-03-05T02:47:12.824Z,78.33
2023-03-05T02:49:41.160Z,77.77
2023-03-05T02:52:09.329Z,78.00
2023-03-05T02:54:37.237Z,78.34
2023-03-05T02:57:06.611Z,77.60
2023-03-05T02:59:34.566Z,77.70
2023-03-05T03:02:03.130Z,78.06
2023-03-05T03:04:31.053Z,78.60
2023-03-05T03:06:59.117Z,78.08
2023-03-05T03:09:27.123Z,78.05
2023-03-05T03:11:55.116Z,78.68
2023-03-05T03:14:24.369Z,78.82
2023-03-05T03:16:52.338Z,78.57
2023-03-05T03:19:20.384Z,78.72
2023-03-05T03:21:49.925Z,78.74
2023-03-05T03:24:17.858Z,78.90
2023-03-05T03:26:46.518Z,78.47
2023-03-05T03:29:14.450Z,78.26
2023-03-05T03:31:44.951Z,79.40
2023-03-05T03:34:15.060Z,80.05
2023-03-05T03:36:43.709Z,79.63
2023-03-05T03:39:12.179Z,79.25
2023-03-05T03:41:43.439Z,79.10
2023-03-05T03:44:11.683Z,79.12
2023-03-05T03:46:40.384Z,78.96
2023-03-05T03:49:09.731Z,78.66
2023-03-05T03:51:37.656Z,78.79
2023-03-05T03:54:05.774Z,78.92
2023-03-05T03:56:33.685Z,79.14
2023-03-05T03:59:01.576Z,78.86
2023-03-05T04:01:29.644Z,79.19
2023-03-05T04:03:57.596Z,79.42
2023-03-05T04:06:27.017Z,79.47
2023-03-05T04:08:54.939Z,79.29
2023-03-05T04:11:23.049Z,79.06
2023-03-05T04:13:51.532Z,79.09
2023-03-05T04:16:20.629Z,78.82
2023-03-05T04:18:48.924Z,78.65
2023-03-05T04:21:16.927Z,79.86
2023-03-05T04:23:46.478Z,80.33
2023-03-05T04:26:14.400Z,81.80
2023-03-05T04:28:42.327Z,82.74
2023-03-05T04:31:10.341Z,83.78
2023-03-05T04:33:38.273Z,83.44
2023-03-05T04:36:06.962Z,83.08
2023-03-05T04:38:34.850Z,82.74
2023-03-05T04:41:04.274Z,82.13
2023-03-05T04:43:32.252Z,81.59
2023-03-05T04:46:00.145Z,81.81
2023-03-05T04:48:28.123Z,81.43
2023-03-05T04:50:57.944Z,80.56
2023-03-05T04:53:26.392Z,80.02
2023-03-05T04:55:54.533Z,79.38
2023-03-05T04:58:24.988Z,78.48
2023-03-05T05:00:52.966Z,78.18
2023-03-05T05:03:20.925Z,78.25
2023-03-05T05:05:56.143Z,78.11
2023-03-05T05:08:24.430Z,78.68
2023-03-05T05:11:00.461Z,78.55
2023-03-05T05:13:30.425Z,79.24
2023-03-05T05:15:59.072Z,79.18
2023-03-05T05:18:27.235Z,79.14
2023-03-05T05:20:55.181Z,79.01
2023-03-05T05:23:23.162Z,79.13
2023-03-05T05:25:57.699Z,78.89
2023-03-05T05:28:25.880Z,79.10
2023-03-05T05:30:55.669Z,78.70
2023-03-05T05:33:23.995Z,78.80
2023-03-05T05:35:52.257Z,78.74
2023-03-05T05:38:20.561Z,79.06
2023-03-05T05:40:48.486Z,78.92
2023-03-05T05:43:16.398Z,79.25
2023-03-05T05:45:45.203Z,79.45
2023-03-05T05:48:14.650Z,79.31
2023-03-05T05:50:42.593Z,79.18
2023-03-05T05:53:10.510Z,78.98
2023-03-05T05:55:41.395Z,79.09
2023-03-05T05:58:09.341Z,79.09
2023-03-05T06:00:37.252Z,79.16
2023-03-05T06:03:05.435Z,78.93
2023-03-05T06:05:34.801Z,78.90
2023-03-05T06:08:02.724Z,79.34
2023-03-05T06:10:30.648Z,79.19
2023-03-05T06:12:58.597Z,79.21
2023-03-05T06:15:26.488Z,79.26
2023-03-05T06:17:54.658Z,78.79
2023-03-05T06:20:23.190Z,78.99
2023-03-05T06:22:52.538Z,78.93
2023-03-05T06:25:20.587Z,78.98
2023-03-05T06:27:48.577Z,79.08
2023-03-05T06:30:16.739Z,79.14
2023-03-05T06:32:44.662Z,79.10
2023-03-05T06:35:14.098Z,79.04
2023-03-05T06:37:42.052Z,79.22
2023-03-05T06:40:13.257Z,79.10
2023-03-05T06:42:41.219Z,79.28
2023-03-05T06:45:10.774Z,79.37
2023-03-05T06:47:38.680Z,79.06
2023-03-05T06:50:07.716Z,78.41
2023-03-05T06:52:35.697Z,79.52
2023-03-05T06:55:04.293Z,79.94
2023-03-05T06:57:33.590Z,80.29
2023-03-05T07:00:01.501Z,79.93
2023-03-05T07:02:29.445Z,79.71
2023-03-05T07:04:57.400Z,79.71
2023-03-05T07:07:25.303Z,79.36
2023-03-05T07:09:53.833Z,79.25
2023-03-05T07:12:21.740Z,79.36
2023-03-05T07:14:51.197Z,78.46
2023-03-05T07:17:19.235Z,78.42
2023-03-05T07:19:47.226Z,78.78
2023-03-05T07:22:15.093Z,78.73
2023-03-05T07:24:43.015Z,78.86
2023-03-05T07:27:10.973Z,78.87
2023-03-05T07:29:38.984Z,79.12
2023-03-05T07:32:08.778Z,79.42
2023-03-05T07:34:38.712Z,79.80
2023-03-05T07:37:06.828Z,79.84
2023-03-05T07:39:34.756Z,79.97
2023-03-05T07:42:02.763Z,79.96
2023-03-05T07:44:47.738Z,79.63
2023-03-05T07:47:17.152Z,79.68
2023-03-05T07:49:45.066Z,79.46
2023-03-05T07:52:13.039Z,79.72
2023-03-05T07:54:41.149Z,79.53
2023-03-05T07:57:09.766Z,78.19
2023-03-05T07:59:39.080Z,77.63
2023-03-05T08:02:07.273Z,77.29
2023-03-05T08:04:36.676Z,76.91
2023-03-05T08:07:04.747Z,76.81
2023-03-05T08:09:32.707Z,76.94
2023-03-05T08:12:00.844Z,76.86
2023-03-05T08:14:28.991Z,77.00
2023-03-05T08:16:56.957Z,76.84
2023-03-05T08:19:24.806Z,76.92
2023-03-05T08:21:55.600Z,76.26
2023-03-05T08:24:29.409Z,76.50
2023-03-05T08:26:58.110Z,76.53
2023-03-05T08:29:26.531Z,76.12
2023-03-05T08:31:55.797Z,76.20
2023-03-05T08:34:23.709Z,75.80
2023-03-05T08:36:51.922Z,76.49
2023-03-05T08:39:21.402Z,76.11
2023-03-05T08:41:49.551Z,75.56
2023-03-05T08:44:17.471Z,75.88
2023-03-05T08:46:45.485Z,74.81
2023-03-05T08:49:13.388Z,75.39
2023-03-05T08:51:41.320Z,74.47
2023-03-05T08:54:10.382Z,75.08
2023-03-05T08:56:39.747Z,74.72
2023-03-05T08:59:08.723Z,74.98
2023-03-05T09:01:36.693Z,75.35
2023-03-05T09:04:05.044Z,77.21
2023-03-05T09:06:34.456Z,77.56
2023-03-05T09:09:02.374Z,76.11
2023-03-05T09:11:30.365Z,74.99
2023-03-05T09:13:59.671Z,74.96
2023-03-05T09:16:28.524Z,75.03
2023-03-05T09:18:56.447Z,73.63
2023-03-05T09:21:24.372Z,73.50
2023-03-05T09:23:52.614Z,73.54
2023-03-05T09:26:21.261Z,73.35
2023-03-05T09:28:49.633Z,73.91
2023-03-05T09:31:19.529Z,74.26
2023-03-05T09:33:48.915Z,73.19
2023-03-05T09:36:22.766Z,72.87
2023-03-05T09:38:51.213Z,73.41
2023-03-05T09:41:27.933Z,73.76
2023-03-05T09:44:03.993Z,73.73
2023-03-05T09:46:46.300Z,73.25
2023-03-05T09:49:19.102Z,73.53
2023-03-05T09:51:49.383Z,72.63
2023-03-05T09:54:21.307Z,73.40
2023-03-05T09:56:52.283Z,73.22
2023-03-05T09:59:28.739Z,72.11
2023-03-05T10:02:03.360Z,73.56
2023-03-05T10:04:43.885Z,74.19
2023-03-05T10:07:18.341Z,72.46
2023-03-05T10:09:52.316Z,71.99
2023-03-05T10:12:27.987Z,71.32
2023-03-05T10:14:56.262Z,72.35
2023-03-05T10:17:48.386Z,71.72
2023-03-05T10:20:42.010Z,71.78
2023-03-05T10:23:24.782Z,70.83
2023-03-05T10:26:28.276Z,70.99
2023-03-05T10:29:08.197Z,71.58
2023-03-05T10:31:53.445Z,71.52
2023-03-05T10:34:40.401Z,70.15
2023-03-05T10:37:21.402Z,70.49
2023-03-05T10:40:11.796Z,69.41
2023-03-05T10:42:48.373Z,69.08
2023-03-05T10:45:19.291Z,69.04
2023-03-05T10:47:52.759Z,68.79
2023-03-05T10:50:24.767Z,68.60
2023-03-05T10:53:05.926Z,68.07
2023-03-05T10:55:33.850Z,68.20
2023-03-05T10:58:02.507Z,68.43
2023-03-05T11:00:32.269Z,68.10
2023-03-05T11:03:02.609Z,68.05
2023-03-05T11:05:47.369Z,67.33
2023-03-05T11:08:28.776Z,67.41
2023-03-05T11:11:12.542Z,67.37
2023-03-05T11:13:56.967Z,67.02
2023-03-05T11:16:28.179Z,67.28
2023-03-05T11:19:18.630Z,67.67
2023-03-05T11:22:05.763Z,67.30
2023-03-05T11:24:33.890Z,67.11
2023-03-05T11:27:01.932Z,66.92
2023-03-05T11:29:32.295Z,67.49
2023-03-05T11:32:17.246Z,66.98
2023-03-05T11:34:45.476Z,66.91
2023-03-05T11:37:24.530Z,65.29
2023-03-05T11:40:17.206Z,66.55
2023-03-05T11:42:45.710Z,65.84
2023-03-05T11:45:19.202Z,64.64
2023-03-05T11:47:50.384Z,65.64
2023-03-05T11:50:23.013Z,66.32
2023-03-05T11:52:53.819Z,65.47
2023-03-05T11:55:28.277Z,65.22
2023-03-05T11:58:05.856Z,64.63
2023-03-05T12:00:37.963Z,65.48
2023-03-05T12:03:12.990Z,64.76
2023-03-05T12:05:44.641Z,64.61
2023-03-05T12:08:19.817Z,64.34
2023-03-05T12:10:47.949Z,65.40
2023-03-05T12:13:24.794Z,64.96
2023-03-05T12:16:05.242Z,64.08
2023-03-05T12:18:46.168Z,64.45
2023-03-05T12:21:26.105Z,63.40
2023-03-05T12:23:59.054Z,64.66
2023-03-05T12:26:56.209Z,64.34
2023-03-05T12:29:38.568Z,63.59
2023-03-05T12:32:28.957Z,64.16
2023-03-05T12:35:00.430Z,64.29
2023-03-05T12:38:25.606Z,63.16
2023-03-05T12:41:43.006Z,63.49
2023-03-05T12:44:19.420Z,63.48
2023-03-05T12:47:08.682Z,63.48
2023-03-05T12:49:40.649Z,64.14
2023-03-05T12:52:17.656Z,62.30
2023-03-05T12:54:45.590Z,62.67
2023-03-05T12:57:19.683Z,61.38
2023-03-05T12:59:51.486Z,60.73
2023-03-05T13:02:28.329Z,60.39
2023-03-05T13:05:02.054Z,61.08
2023-03-05T13:07:30.005Z,61.48
2023-03-05T13:09:59.809Z,61.98
2023-03-05T13:12:30.444Z,61.14
2023-03-05T13:15:04.556Z,60.26
2023-03-05T13:17:38.134Z,60.13
2023-03-05T13:23:18.286Z,59.08
2023-03-05T13:25:57.038Z,60.57
2023-03-05T13:28:25.516Z,59.19
2023-03-05T13:30:55.861Z,58.69
2023-03-05T13:33:27.523Z,59.42
2023-03-05T13:35:56.040Z,59.31
2023-03-05T13:38:30.961Z,58.19
2023-03-05T13:41:07.462Z,57.64
2023-03-05T13:43:35.861Z,57.05
2023-03-05T13:46:03.856Z,57.38
2023-03-05T13:48:31.865Z,56.77
2023-03-05T13:51:00.330Z,57.75
2023-03-05T13:53:31.386Z,56.09
2023-03-05T13:56:02.270Z,56.17
2023-03-05T13:58:47.406Z,56.26
2023-03-05T14:01:21.885Z,55.75
2023-03-05T14:03:52.058Z,55.77
2023-03-05T14:06:22.771Z,56.63
2023-03-05T14:08:53.771Z,55.39
2023-03-05T14:11:23.205Z,55.79
2023-03-05T14:14:04.164Z,54.82
2023-03-05T14:16:33.775Z,55.40
2023-03-05T14:19:03.440Z,54.40
2023-03-05T14:21:45.997Z,53.13
2023-03-05T14:24:22.140Z,53.65
2023-03-05T14:26:52.882Z,53.21
2023-03-05T14:29:24.275Z,53.04
2023-03-05T14:31:54.301Z,53.10
2023-03-05T14:34:27.171Z,53.17
2023-03-05T14:36:57.089Z,53.25
2023-03-05T14:39:31.824Z,52.56
2023-03-05T14:42:33.788Z,50.27
2023-03-05T14:45:03.221Z,52.42
2023-03-05T14:47:31.354Z,53.52
2023-03-05T14:49:59.267Z,53.00
2023-03-05T14:52:28.289Z,52.34
2023-03-05T14:54:57.758Z,52.73
2023-03-05T14:57:28.779Z,51.74
2023-03-05T14:59:56.847Z,51.58
2023-03-05T15:02:26.675Z,51.29
2023-03-05T15:04:54.661Z,50.93
2023-03-05T15:07:26.905Z,51.65
2023-03-05T15:09:55.005Z,51.45
2023-03-05T15:12:25.350Z,51.26
2023-03-05T15:14:53.972Z,50.42
2023-03-05T15:17:24.580Z,50.16
2023-03-05T15:19:53.817Z,49.76
2023-03-05T15:22:21.757Z,50.05
2023-03-05T15:24:49.825Z,50.09
2023-03-05T15:27:17.718Z,49.70
2023-03-05T15:29:46.990Z,49.16
2023-03-05T15:32:15.048Z,49.04
2023-03-05T15:34:43.184Z,50.56
2023-03-05T15:37:11.202Z,51.65
2023-03-05T15:39:39.175Z,51.45
2023-03-05T15:42:07.435Z,53.03
2023-03-05T15:44:35.421Z,53.25
2023-03-05T15:47:04.731Z,52.73
2023-03-05T15:49:32.685Z,53.00
2023-03-05T15:52:00.921Z,53.41
2023-03-05T15:54:28.961Z,53.31
2023-03-05T15:56:56.869Z,53.71
2023-03-05T15:59:25.236Z,53.89
2023-03-05T16:01:53.139Z,53.45
2023-03-05T16:04:22.469Z,54.23
2023-03-05T16:06:51.565Z,53.49
2023-03-05T16:09:21.817Z,53.38
2023-03-05T16:11:51.572Z,52.89
2023-03-05T16:14:23.638Z,53.42
2023-03-05T16:16:53.774Z,53.96
2023-03-05T16:19:25.493Z,53.61
2023-03-05T16:21:53.372Z,53.66
2023-03-05T16:24:21.266Z,53.76
2023-03-05T16:26:49.201Z,52.91
2023-03-05T16:29:17.094Z,53.14
2023-03-05T16:31:45.465Z,53.41
2023-03-05T16:34:16.241Z,53.30
2023-03-05T16:36:52.154Z,52.66
2023-03-05T16:39:20.940Z,52.88
2023-03-05T16:41:49.183Z,52.42
2023-03-05T16:44:17.138Z,53.30
2023-03-05T16:46:49.174Z,53.39
2023-03-05T16:49:17.805Z,53.09
2023-03-05T16:51:45.683Z,53.70
2023-03-05T16:54:14.981Z,53.99
2023-03-05T16:56:42.870Z,53.92
2023-03-05T16:59:11.680Z,53.69
2023-03-05T17:01:39.624Z,53.70
2023-03-05T17:04:08.411Z,54.29
2023-03-05T17:06:36.357Z,54.66
2023-03-05T17:09:04.841Z,54.47
2023-03-05T17:11:34.194Z,54.26
2023-03-05T17:14:03.979Z,55.43
2023-03-05T17:16:32.058Z,55.17
2023-03-05T17:19:00.003Z,55.54
2023-03-05T17:21:27.920Z,55.25
2023-03-05T17:23:56.826Z,56.90
2023-03-05T17:26:24.737Z,57.18
2023-03-05T17:28:54.623Z,56.79
2023-03-05T17:31:22.630Z,57.31
2023-03-05T17:33:50.872Z,58.23
2023-03-05T17:36:20.882Z,59.05
2023-03-05T17:38:50.170Z,58.91
2023-03-05T17:41:19.984Z,59.17
2023-03-05T17:43:47.937Z,59.63
2023-03-05T17:46:18.091Z,59.97
2023-03-05T17:48:46.265Z,60.45
2023-03-05T17:51:16.648Z,60.43
2023-03-05T17:53:44.841Z,60.42
2023-03-05T17:56:14.342Z,60.64
2023-03-05T17:58:42.488Z,60.60
2023-03-05T18:01:10.626Z,61.12
2023-03-05T18:03:40.766Z,61.24
2023-03-05T18:06:08.765Z,61.33
2023-03-05T18:08:36.679Z,61.75
2023-03-05T18:11:04.637Z,61.29
2023-03-05T18:13:32.556Z,61.56
2023-03-05T18:16:01.212Z,61.85
2023-03-05T18:18:29.255Z,62.05
2023-03-05T18:20:58.623Z,61.89
2023-03-05T18:23:26.488Z,62.44
2023-03-05T18:25:54.432Z,62.75
2023-03-05T18:28:22.337Z,62.96
2023-03-05T18:30:50.264Z,63.13
2023-03-05T18:33:21.205Z,63.19
2023-03-05T18:35:52.169Z,63.20
2023-03-05T18:38:22.798Z,62.72
2023-03-05T18:40:51.546Z,62.41
2023-03-05T18:43:20.736Z,63.71
2023-03-05T18:45:49.428Z,63.56
2023-03-05T18:48:17.527Z,63.65
2023-03-05T18:50:45.860Z,63.93
2023-03-05T18:53:16.898Z,63.64
2023-03-05T18:55:46.313Z,63.95
2023-03-05T18:58:15.493Z,63.84
2023-03-05T19:00:44.898Z,63.68
2023-03-05T19:03:13.271Z,64.19
2023-03-05T19:05:42.822Z,64.19
2023-03-05T19:08:11.080Z,64.70
2023-03-05T19:10:39.060Z,65.04
2023-03-05T19:13:24.120Z,65.27
2023-03-05T19:15:52.445Z,64.70
2023-03-05T19:18:20.739Z,64.71
2023-03-05T19:20:55.650Z,64.92
2023-03-05T19:23:23.599Z,65.41
2023-03-05T19:25:51.502Z,65.08
2023-03-05T19:28:21.271Z,65.51
2023-03-05T19:30:49.375Z,65.31
2023-03-05T19:33:17.322Z,65.38
2023-03-05T19:35:45.841Z,65.50
2023-03-05T19:38:13.805Z,65.80
2023-03-05T19:40:42.388Z,65.69
2023-03-05T19:43:10.294Z,66.36
2023-03-05T19:45:39.589Z,65.48
2023-03-05T19:48:08.528Z,65.88
2023-03-05T19:50:36.446Z,66.80
2023-03-05T19:53:04.344Z,66.43
2023-03-05T19:55:32.341Z,67.00
2023-03-05T19:58:00.218Z,66.19
2023-03-05T20:00:28.269Z,67.17
2023-03-05T20:02:58.879Z,66.69
2023-03-05T20:05:26.915Z,67.45
2023-03-05T20:07:54.881Z,66.74
2023-03-05T20:10:23.032Z,66.86
2023-03-05T20:12:51.379Z,67.28
2023-03-05T20:15:19.744Z,68.14
2023-03-05T20:17:47.900Z,67.70
2023-03-05T20:20:19.149Z,68.69
2023-03-05T20:22:48.286Z,68.42
2023-03-05T20:25:21.120Z,68.84
2023-03-05T20:27:49.104Z,69.21
2023-03-05T20:30:17.973Z,68.28
2023-03-05T20:32:46.072Z,68.49
2023-03-05T20:35:15.529Z,68.61
2023-03-05T20:38:00.299Z,68.92
2023-03-05T20:40:28.413Z,68.13
2023-03-05T20:42:56.358Z,68.78
2023-03-05T20:45:24.353Z,69.10
2023-03-05T20:47:52.294Z,68.46
2023-03-05T20:50:20.750Z,68.52
2023-03-05T20:52:50.033Z,68.98
2023-03-05T20:55:17.947Z,69.67
2023-03-05T20:57:46.302Z,69.48
2023-03-05T21:00:15.150Z,69.87
2023-03-05T21:02:43.079Z,69.06
2023-03-05T21:05:12.565Z,69.59
2023-03-05T21:07:40.498Z,70.20
2023-03-05T21:10:10.993Z,69.91
2023-03-05T21:12:39.004Z,69.33
2023-03-05T21:15:08.159Z,69.68
2023-03-05T21:17:36.116Z,69.84
2023-03-05T21:20:05.877Z,69.30
2023-03-05T21:22:34.012Z,70.53
2023-03-05T21:25:13.389Z,70.03
2023-03-05T21:27:43.070Z,70.49
2023-03-05T21:30:12.440Z,70.48
2023-03-05T21:32:40.442Z,69.71
2023-03-05T21:35:09.208Z,70.71
2023-03-05T21:37:42.412Z,70.90
2023-03-05T21:40:12.402Z,70.46
2023-03-05T21:42:40.375Z,70.67
2023-03-05T21:45:12.756Z,70.23
2023-03-05T21:47:41.128Z,70.69
2023-03-05T21:50:11.911Z,71.52
2023-03-05T21:52:40.568Z,70.53
2023-03-05T21:55:11.953Z,70.64
2023-03-05T21:57:39.884Z,70.98
2023-03-05T22:00:12.448Z,70.79
2023-03-05T22:02:41.814Z,71.16
2023-03-05T22:05:13.374Z,70.62
2023-03-05T22:07:41.510Z,70.94
2023-03-05T22:10:12.840Z,71.23
2023-03-05T22:12:53.202Z,70.81
2023-03-05T22:15:22.723Z,70.88
2023-03-05T22:17:50.649Z,71.20
2023-03-05T22:20:19.485Z,70.78
2023-03-05T22:22:47.784Z,71.29
2023-03-05T22:25:16.646Z,70.92
2023-03-05T22:27:45.309Z,71.34
2023-03-05T22:30:14.422Z,71.11
2023-03-05T22:32:43.810Z,71.61
2023-03-05T22:35:14.166Z,71.15
2023-03-05T22:37:42.452Z,71.66
2023-03-05T22:40:14.658Z,70.84
2023-03-05T22:42:42.657Z,71.63
2023-03-05T22:45:11.281Z,71.78
2023-03-05T22:47:39.211Z,71.37
2023-03-05T22:50:10.060Z,71.38
2023-03-05T22:52:38.002Z,71.86
2023-03-05T22:55:06.863Z,71.09
2023-03-05T22:57:34.859Z,71.68
2023-03-05T23:00:02.993Z,71.09
2023-03-05T23:02:31.216Z,71.21
2023-03-05T23:05:00.538Z,71.04
2023-03-05T23:07:32.778Z,72.28
2023-03-05T23:10:02.808Z,71.98
2023-03-05T23:12:32.977Z,71.70
2023-03-05T23:15:01.732Z,72.44
2023-03-05T23:17:30.182Z,72.17
2023-03-05T23:19:58.168Z,72.41
2023-03-05T23:22:26.072Z,72.78
2023-03-05T23:24:55.372Z,72.43
2023-03-05T23:27:23.362Z,73.14
2023-03-05T23:30:04.588Z,73.28
2023-03-05T23:32:32.878Z,73.21
2023-03-05T23:35:00.798Z,73.45
2023-03-05T23:37:28.696Z,73.84
2023-03-05T23:39:57.972Z,73.68
2023-03-05T23:42:25.823Z,74.23
2023-03-05T23:44:55.240Z,73.72
2023-03-05T23:47:23.180Z,73.77
2023-03-05T23:49:51.171Z,74.36
2023-03-05T23:52:19.049Z,74.32
2023-03-05T23:54:46.944Z,74.30
2023-03-05T23:57:16.223Z,74.33
2023-03-05T23:59:44.097Z,74.22
